sensor_id;sensor_type;location;lat;lon;timestamp;pressure;altitude;pressure_sealevel;temperature;humidity
63700;BME280;49845;47.130;142.766;2023-07-24T02:39:29;100010.25;;;21.28;100.00
63700;BME280;49845;47.130;142.766;2023-07-24T02:42:01;99984.81;;;20.97;100.00
63700;BME280;49845;47.130;142.766;2023-07-24T02:44:33;100016.75;;;21.09;100.00
63700;BME280;49845;47.130;142.766;2023-07-24T02:47:05;100011.63;;;21.06;100.00
63700;BME280;49845;47.130;142.766;2023-07-24T02:49:38;100004.06;;;20.86;100.00
63700;BME280;49845;47.130;142.766;2023-07-24T02:52:10;99996.22;;;20.84;100.00
63700;BME280;49845;47.130;142.766;2023-07-24T02:54:44;99998.75;;;20.86;100.00
63700;BME280;49845;47.130;142.766;2023-07-24T02:57:17;99994.41;;;20.85;100.00
63700;BME280;49845;47.130;142.766;2023-07-24T02:59:49;99992.81;;;20.82;100.00
63700;BME280;49845;47.130;142.766;2023-07-24T03:02:20;99995.53;;;20.81;100.00
63700;BME280;49845;47.130;142.766;2023-07-24T03:04:52;99975.47;;;20.62;100.00
63700;BME280;49845;47.130;142.766;2023-07-24T03:07:24;99998.03;;;20.70;100.00
63700;BME280;49845;47.130;142.766;2023-07-24T03:09:59;99999.94;;;20.67;100.00
63700;BME280;49845;47.130;142.766;2023-07-24T03:12:32;99998.22;;;20.66;100.00
63700;BME280;49845;47.130;142.766;2023-07-24T03:15:06;100001.41;;;20.72;100.00
63700;BME280;49845;47.130;142.766;2023-07-24T03:17:38;100003.16;;;20.73;100.00
63700;BME280;49845;47.130;142.766;2023-07-24T03:20:13;99999.53;;;20.74;100.00
63700;BME280;49845;47.130;142.766;2023-07-24T03:22:48;99961.44;;;20.60;100.00
63700;BME280;49845;47.130;142.766;2023-07-24T03:25:21;99963.69;;;20.52;100.00
63700;BME280;49845;47.130;142.766;2023-07-24T03:27:53;99995.75;;;20.78;100.00
63700;BME280;49845;47.130;142.766;2023-07-24T03:30:25;100001.91;;;20.78;100.00
63700;BME280;49845;47.130;142.766;2023-07-24T03:32:58;99986.66;;;20.82;100.00
63700;BME280;49845;47.130;142.766;2023-07-24T03:35:30;99968.06;;;20.67;100.00
63700;BME280;49845;47.130;142.766;2023-07-24T03:38:02;99959.53;;;20.77;100.00
63700;BME280;49845;47.130;142.766;2023-07-24T03:40:35;99971.06;;;20.90;100.00
63700;BME280;49845;47.130;142.766;2023-07-24T03:43:07;99937.13;;;20.81;100.00
63700;BME280;49845;47.130;142.766;2023-07-24T03:45:39;99956.78;;;21.05;100.00
63700;BME280;49845;47.130;142.766;2023-07-24T03:48:11;99968.94;;;21.09;100.00
63700;BME280;49845;47.130;142.766;2023-07-24T03:50:43;99970.09;;;21.05;100.00
63700;BME280;49845;47.130;142.766;2023-07-24T03:53:14;99956.53;;;20.96;100.00
63700;BME280;49845;47.130;142.766;2023-07-24T03:55:51;99949.28;;;20.85;100.00
63700;BME280;49845;47.130;142.766;2023-07-24T03:58:24;99959.28;;;20.94;100.00
63700;BME280;49845;47.130;142.766;2023-07-24T04:00:58;99967.84;;;20.99;100.00
63700;BME280;49845;47.130;142.766;2023-07-24T04:03:31;99966.31;;;20.95;100.00
63700;BME280;49845;47.130;142.766;2023-07-24T04:06:03;99963.56;;;20.97;100.00
63700;BME280;49845;47.130;142.766;2023-07-24T04:08:35;99956.63;;;20.94;100.00
63700;BME280;49845;47.130;142.766;2023-07-24T04:11:08;99955.28;;;21.01;100.00
63700;BME280;49845;47.130;142.766;2023-07-24T04:13:40;99949.47;;;21.09;100.00
63700;BME280;49845;47.130;142.766;2023-07-24T04:16:13;99947.03;;;21.06;100.00
63700;BME280;49845;47.130;142.766;2023-07-24T04:18:45;99945.31;;;21.05;100.00
63700;BME280;49845;47.130;142.766;2023-07-24T04:21:17;99944.66;;;21.01;100.00
63700;BME280;49845;47.130;142.766;2023-07-24T04:23:48;99948.28;;;21.00;100.00
63700;BME280;49845;47.130;142.766;2023-07-24T04:26:23;99951.22;;;20.96;100.00
63700;BME280;49845;47.130;142.766;2023-07-24T04:28:58;99936.34;;;20.93;100.00
63700;BME280;49845;47.130;142.766;2023-07-24T04:31:31;99932.72;;;20.94;100.00
63700;BME280;49845;47.130;142.766;2023-07-24T04:34:03;99936.13;;;20.96;100.00
63700;BME280;49845;47.130;142.766;2023-07-24T04:36:35;99943.59;;;21.04;100.00
63700;BME280;49845;47.130;142.766;2023-07-24T04:39:07;99933.44;;;21.10;100.00
63700;BME280;49845;47.130;142.766;2023-07-24T04:41:40;99939.50;;;21.13;100.00
63700;BME280;49845;47.130;142.766;2023-07-24T04:44:12;99937.19;;;21.21;100.00
63700;BME280;49845;47.130;142.766;2023-07-24T04:46:43;99933.28;;;21.26;100.00
63700;BME280;49845;47.130;142.766;2023-07-24T04:49:15;99922.88;;;21.36;100.00
63700;BME280;49845;47.130;142.766;2023-07-24T04:51:48;99930.72;;;21.39;100.00
63700;BME280;49845;47.130;142.766;2023-07-24T04:54:21;99931.44;;;21.41;100.00
63700;BME280;49845;47.130;142.766;2023-07-24T04:56:54;99934.47;;;21.49;100.00
63700;BME280;49845;47.130;142.766;2023-07-24T04:59:28;99929.47;;;21.58;100.00
63700;BME280;49845;47.130;142.766;2023-07-24T05:02:00;99919.59;;;21.60;100.00
63700;BME280;49845;47.130;142.766;2023-07-24T05:04:33;99914.28;;;21.60;100.00
63700;BME280;49845;47.130;142.766;2023-07-24T05:07:06;99916.41;;;21.67;100.00
63700;BME280;49845;47.130;142.766;2023-07-24T05:09:38;99913.22;;;21.75;100.00
63700;BME280;49845;47.130;142.766;2023-07-24T05:12:11;99892.34;;;21.69;100.00
63700;BME280;49845;47.130;142.766;2023-07-24T05:14:44;99910.69;;;21.99;100.00
63700;BME280;49845;47.130;142.766;2023-07-24T05:17:16;99897.47;;;21.97;100.00
63700;BME280;49845;47.130;142.766;2023-07-24T05:19:48;99912.81;;;22.07;100.00
63700;BME280;49845;47.130;142.766;2023-07-24T05:22:20;99898.75;;;22.05;99.87
63700;BME280;49845;47.130;142.766;2023-07-24T05:24:52;99899.59;;;22.05;99.89
63700;BME280;49845;47.130;142.766;2023-07-24T05:27:25;99902.69;;;22.12;99.68
63700;BME280;49845;47.130;142.766;2023-07-24T05:29:59;99913.00;;;22.16;100.00
63700;BME280;49845;47.130;142.766;2023-07-24T05:32:30;99906.84;;;22.16;99.97
63700;BME280;49845;47.130;142.766;2023-07-24T05:35:02;99915.91;;;22.26;99.13
63700;BME280;49845;47.130;142.766;2023-07-24T05:37:35;99911.97;;;22.19;98.72
63700;BME280;49845;47.130;142.766;2023-07-24T05:40:10;99922.25;;;22.11;98.72
63700;BME280;49845;47.130;142.766;2023-07-24T05:42:43;99914.94;;;22.02;99.18
63700;BME280;49845;47.130;142.766;2023-07-24T05:45:16;99912.47;;;21.98;100.00
63700;BME280;49845;47.130;142.766;2023-07-24T05:47:48;99901.09;;;21.96;100.00
63700;BME280;49845;47.130;142.766;2023-07-24T05:50:20;99840.38;;;21.65;100.00
63700;BME280;49845;47.130;142.766;2023-07-24T05:52:51;99895.88;;;22.08;100.00
63700;BME280;49845;47.130;142.766;2023-07-24T05:55:23;99903.66;;;22.24;100.00
63700;BME280;49845;47.130;142.766;2023-07-24T06:18:43;99896.63;;;22.10;99.89
63700;BME280;49845;47.130;142.766;2023-07-24T06:21:18;99900.69;;;22.03;99.60
63700;BME280;49845;47.130;142.766;2023-07-24T06:23:52;99903.75;;;21.96;100.00
63700;BME280;49845;47.130;142.766;2023-07-24T06:26:23;99887.25;;;21.91;100.00
63700;BME280;49845;47.130;142.766;2023-07-24T06:28:56;99892.56;;;21.91;100.00
63700;BME280;49845;47.130;142.766;2023-07-24T06:31:29;99887.25;;;21.91;100.00
63700;BME280;49845;47.130;142.766;2023-07-24T06:34:02;99881.41;;;21.86;100.00
63700;BME280;49845;47.130;142.766;2023-07-24T06:36:34;99880.88;;;21.81;100.00
63700;BME280;49845;47.130;142.766;2023-07-24T06:39:06;99874.28;;;21.74;100.00
63700;BME280;49845;47.130;142.766;2023-07-24T06:41:46;99875.69;;;21.67;100.00
63700;BME280;49845;47.130;142.766;2023-07-24T06:44:20;99868.09;;;21.61;100.00
63700;BME280;49845;47.130;142.766;2023-07-24T06:46:51;99874.56;;;21.57;100.00
63700;BME280;49845;47.130;142.766;2023-07-24T06:49:25;99871.19;;;21.54;100.00
63700;BME280;49845;47.130;142.766;2023-07-24T06:51:57;99863.09;;;21.43;100.00
63700;BME280;49845;47.130;142.766;2023-07-24T06:54:29;99872.97;;;21.41;100.00
63700;BME280;49845;47.130;142.766;2023-07-24T06:57:00;99876.97;;;21.34;100.00
63700;BME280;49845;47.130;142.766;2023-07-24T06:59:32;99881.53;;;21.32;100.00
63700;BME280;49845;47.130;142.766;2023-07-24T07:02:04;99881.19;;;21.24;100.00
63700;BME280;49845;47.130;142.766;2023-07-24T07:04:38;99876.69;;;21.11;100.00
63700;BME280;49845;47.130;142.766;2023-07-24T07:07:11;99877.19;;;21.04;100.00
63700;BME280;49845;47.130;142.766;2023-07-24T07:09:43;99878.75;;;20.94;100.00
63700;BME280;49845;47.130;142.766;2023-07-24T07:12:15;99879.06;;;20.89;100.00
63700;BME280;49845;47.130;142.766;2023-07-24T07:14:49;99881.91;;;20.86;100.00
63700;BME280;49845;47.130;142.766;2023-07-24T07:17:21;99877.78;;;20.82;100.00
63700;BME280;49845;47.130;142.766;2023-07-24T07:19:54;99884.22;;;20.78;100.00
63700;BME280;49845;47.130;142.766;2023-07-24T07:22:27;99881.88;;;20.73;100.00
63700;BME280;49845;47.130;142.766;2023-07-24T07:24:59;99887.38;;;20.70;100.00
63700;BME280;49845;47.130;142.766;2023-07-24T07:27:30;99888.44;;;20.67;100.00
63700;BME280;49845;47.130;142.766;2023-07-24T07:30:02;99876.84;;;20.68;100.00
63700;BME280;49845;47.130;142.766;2023-07-24T07:32:35;99867.56;;;20.61;100.00
63700;BME280;49845;47.130;142.766;2023-07-24T07:35:11;99870.22;;;20.61;100.00
63700;BME280;49845;47.130;142.766;2023-07-24T07:37:43;99859.81;;;20.58;100.00
63700;BME280;49845;47.130;142.766;2023-07-24T07:40:15;99864.19;;;20.59;100.00
63700;BME280;49845;47.130;142.766;2023-07-24T07:42:47;99877.53;;;20.58;100.00
63700;BME280;49845;47.130;142.766;2023-07-24T07:45:18;99835.78;;;20.33;100.00
63700;BME280;49845;47.130;142.766;2023-07-24T07:47:50;99880.47;;;20.53;100.00
63700;BME280;49845;47.130;142.766;2023-07-24T07:50:24;99871.72;;;20.51;100.00
63700;BME280;49845;47.130;142.766;2023-07-24T07:52:56;99871.94;;;20.48;100.00
63700;BME280;49845;47.130;142.766;2023-07-24T07:55:28;99870.25;;;20.47;100.00
63700;BME280;49845;47.130;142.766;2023-07-24T07:58:00;99871.09;;;20.47;100.00
63700;BME280;49845;47.130;142.766;2023-07-24T08:00:32;99875.34;;;20.50;100.00
63700;BME280;49845;47.130;142.766;2023-07-24T08:03:05;99874.50;;;20.50;100.00
63700;BME280;49845;47.130;142.766;2023-07-24T08:05:39;99878.75;;;20.52;100.00
63700;BME280;49845;47.130;142.766;2023-07-24T08:08:13;99877.03;;;20.51;100.00
63700;BME280;49845;47.130;142.766;2023-07-24T08:10:45;99884.06;;;20.52;100.00
63700;BME280;49845;47.130;142.766;2023-07-24T08:13:18;99875.34;;;20.50;100.00
63700;BME280;49845;47.130;142.766;2023-07-24T08:15:51;99871.94;;;20.48;100.00
63700;BME280;49845;47.130;142.766;2023-07-24T08:18:31;99875.72;;;20.44;100.00
63700;BME280;49845;47.130;142.766;2023-07-24T08:21:05;99884.66;;;20.43;100.00
63700;BME280;49845;47.130;142.766;2023-07-24T08:23:38;99875.09;;;20.40;100.00
63700;BME280;49845;47.130;142.766;2023-07-24T08:26:10;99865.50;;;20.38;100.00
63700;BME280;49845;47.130;142.766;2023-07-24T08:28:41;99877.19;;;20.35;100.00
63700;BME280;49845;47.130;142.766;2023-07-24T08:31:14;99871.03;;;20.35;100.00
63700;BME280;49845;47.130;142.766;2023-07-24T08:33:46;99815.16;;;19.95;100.00
63700;BME280;49845;47.130;142.766;2023-07-24T08:36:20;99890.53;;;20.34;100.00
63700;BME280;49845;47.130;142.766;2023-07-24T08:38:51;99868.47;;;20.19;100.00
63700;BME280;49845;47.130;142.766;2023-07-24T08:41:23;99892.25;;;20.35;100.00
63700;BME280;49845;47.130;142.766;2023-07-24T08:43:55;99889.47;;;20.36;100.00
63700;BME280;49845;47.130;142.766;2023-07-24T08:46:27;99881.81;;;20.32;100.00
63700;BME280;49845;47.130;142.766;2023-07-24T08:49:02;99890.53;;;20.34;100.00
63700;BME280;49845;47.130;142.766;2023-07-24T08:51:38;99896.78;;;20.33;100.00
63700;BME280;49845;47.130;142.766;2023-07-24T08:54:11;99860.06;;;20.12;100.00
63700;BME280;49845;47.130;142.766;2023-07-24T08:56:45;99891.78;;;20.28;100.00
63700;BME280;49845;47.130;142.766;2023-07-24T08:59:20;99891.13;;;20.24;100.00
63700;BME280;49845;47.130;142.766;2023-07-24T09:01:54;99889.41;;;20.23;100.00
63700;BME280;49845;47.130;142.766;2023-07-24T09:04:27;99884.09;;;20.23;100.00
63700;BME280;49845;47.130;142.766;2023-07-24T09:07:02;99884.09;;;20.23;100.00
63700;BME280;49845;47.130;142.766;2023-07-24T09:09:34;99893.22;;;20.19;100.00
63700;BME280;49845;47.130;142.766;2023-07-24T09:12:07;99886.19;;;20.18;100.00
63700;BME280;49845;47.130;142.766;2023-07-24T09:14:38;99882.59;;;20.19;100.00
63700;BME280;49845;47.130;142.766;2023-07-24T09:17:11;99878.13;;;20.20;100.00
63700;BME280;49845;47.130;142.766;2023-07-24T09:19:43;99875.38;;;20.21;100.00
63700;BME280;49845;47.130;142.766;2023-07-24T09:22:17;99873.88;;;20.17;100.00
63700;BME280;49845;47.130;142.766;2023-07-24T09:24:50;99876.63;;;20.16;100.00
63700;BME280;49845;47.130;142.766;2023-07-24T09:27:27;99862.16;;;20.07;100.00
63700;BME280;49845;47.130;142.766;2023-07-24T09:30:01;99877.66;;;20.13;100.00
63700;BME280;49845;47.130;142.766;2023-07-24T09:32:32;99874.25;;;20.11;100.00
63700;BME280;49845;47.130;142.766;2023-07-24T09:35:15;99874.44;;;20.08;100.00
63700;BME280;49845;47.130;142.766;2023-07-24T09:37:50;99875.97;;;20.12;100.00
63700;BME280;49845;47.130;142.766;2023-07-24T09:40:22;99869.91;;;20.10;100.00
63700;BME280;49845;47.130;142.766;2023-07-24T09:42:53;99869.91;;;20.10;100.00
63700;BME280;49845;47.130;142.766;2023-07-24T09:45:47;99856.16;;;20.03;100.00
63700;BME280;49845;47.130;142.766;2023-07-24T09:48:22;99860.06;;;20.12;100.00
63700;BME280;49845;47.130;142.766;2023-07-24T09:50:57;99878.78;;;20.09;100.00
63700;BME280;49845;47.130;142.766;2023-07-24T09:53:34;99870.81;;;20.09;100.00
63700;BME280;49845;47.130;142.766;2023-07-24T09:56:08;99876.91;;;20.11;100.00
63700;BME280;49845;47.130;142.766;2023-07-24T09:58:40;99847.16;;;19.92;100.00
63700;BME280;49845;47.130;142.766;2023-07-24T10:01:12;99877.66;;;20.13;100.00
63700;BME280;49845;47.130;142.766;2023-07-24T10:03:47;99874.03;;;20.14;100.00
63700;BME280;49845;47.130;142.766;2023-07-24T10:06:19;99867.91;;;20.14;100.00
63700;BME280;49845;47.130;142.766;2023-07-24T10:08:58;99867.25;;;20.10;100.00
63700;BME280;49845;47.130;142.766;2023-07-24T10:11:30;99864.03;;;20.05;100.00
63700;BME280;49845;47.130;142.766;2023-07-24T10:14:02;99873.78;;;20.04;100.00
63700;BME280;49845;47.130;142.766;2023-07-24T10:16:34;99869.53;;;20.02;100.00
63700;BME280;49845;47.130;142.766;2023-07-24T10:19:14;99863.28;;;20.03;100.00
63700;BME280;49845;47.130;142.766;2023-07-24T10:21:47;99862.63;;;19.99;100.00
63700;BME280;49845;47.130;142.766;2023-07-24T10:24:21;99870.47;;;20.01;100.00
63700;BME280;49845;47.130;142.766;2023-07-24T10:27:09;99876.72;;;20.00;100.00
63700;BME280;49845;47.130;142.766;2023-07-24T10:29:42;99869.53;;;20.02;100.00
63700;BME280;49845;47.130;142.766;2023-07-24T10:32:19;99867.81;;;20.01;100.00
63700;BME280;49845;47.130;142.766;2023-07-24T10:34:59;99862.91;;;19.95;100.00
63700;BME280;49845;47.130;142.766;2023-07-24T10:37:35;99873.50;;;19.95;100.00
63700;BME280;49845;47.130;142.766;2023-07-24T10:40:19;99874.34;;;19.95;100.00
63700;BME280;49845;47.130;142.766;2023-07-24T10:43:00;99869.13;;;19.94;100.00
63700;BME280;49845;47.130;142.766;2023-07-24T10:45:42;99841.94;;;19.76;100.00
63700;BME280;49845;47.130;142.766;2023-07-24T10:48:19;99854.72;;;19.83;100.00
63700;BME280;49845;47.130;142.766;2023-07-24T10:50:52;99840.63;;;19.69;100.00
63700;BME280;49845;47.130;142.766;2023-07-24T10:53:25;99873.28;;;19.83;100.00
63700;BME280;49845;47.130;142.766;2023-07-24T10:56:03;99872.53;;;19.81;100.00
63700;BME280;49845;47.130;142.766;2023-07-24T10:58:37;99881.25;;;19.83;100.00
63700;BME280;49845;47.130;142.766;2023-07-24T11:01:09;99873.69;;;19.77;100.00
63700;BME280;49845;47.130;142.766;2023-07-24T11:03:42;99882.41;;;19.79;100.00
63700;BME280;49845;47.130;142.766;2023-07-24T11:06:15;99871.19;;;19.74;100.00
63700;BME280;49845;47.130;142.766;2023-07-24T11:08:52;99869.16;;;19.79;100.00
63700;BME280;49845;47.130;142.766;2023-07-24T11:11:30;99865.53;;;19.80;100.00
63700;BME280;49845;47.130;142.766;2023-07-24T11:14:12;99827.81;;;19.61;100.00
63700;BME280;49845;47.130;142.766;2023-07-24T11:16:49;99872.72;;;19.78;100.00
63700;BME280;49845;47.130;142.766;2023-07-24T11:19:24;99874.59;;;19.76;100.00
63700;BME280;49845;47.130;142.766;2023-07-24T11:21:56;99874.59;;;19.76;100.00
63700;BME280;49845;47.130;142.766;2023-07-24T11:24:33;99874.25;;;19.82;100.00
63700;BME280;49845;47.130;142.766;2023-07-24T11:27:14;99875.94;;;19.83;100.00
63700;BME280;49845;47.130;142.766;2023-07-24T11:29:49;99879.38;;;19.86;100.00
63700;BME280;49845;47.130;142.766;2023-07-24T11:32:21;99879.16;;;19.89;100.00
63700;BME280;49845;47.130;142.766;2023-07-24T11:34:56;99874.06;;;19.86;100.00
63700;BME280;49845;47.130;142.766;2023-07-24T11:37:31;99873.28;;;19.83;100.00
63700;BME280;49845;47.130;142.766;2023-07-24T11:40:04;99870.00;;;19.80;100.00
63700;BME280;49845;47.130;142.766;2023-07-24T11:42:42;99873.50;;;19.80;100.00
63700;BME280;49845;47.130;142.766;2023-07-24T11:45:15;99877.66;;;19.85;100.00
63700;BME280;49845;47.130;142.766;2023-07-24T11:47:48;99875.94;;;19.83;100.00
63700;BME280;49845;47.130;142.766;2023-07-24T11:50:23;99861.94;;;19.81;100.00
63700;BME280;49845;47.130;142.766;2023-07-24T11:52:55;99866.19;;;19.84;100.00
63700;BME280;49845;47.130;142.766;2023-07-24T11:55:31;99855.13;;;19.77;100.00
63700;BME280;49845;47.130;142.766;2023-07-24T11:58:05;99879.38;;;19.86;100.00
63700;BME280;49845;47.130;142.766;2023-07-24T12:00:37;99881.16;;;19.85;100.00
63700;BME280;49845;47.130;142.766;2023-07-24T12:03:11;99882.22;;;19.82;100.00
63700;BME280;49845;47.130;142.766;2023-07-24T12:05:45;99892.81;;;19.82;100.00
63700;BME280;49845;47.130;142.766;2023-07-24T12:08:19;99889.31;;;19.82;100.00
63700;BME280;49845;47.130;142.766;2023-07-24T12:10:53;99870.84;;;19.80;100.00
63700;BME280;49845;47.130;142.766;2023-07-24T12:13:27;99868.94;;;19.82;100.00
63700;BME280;49845;47.130;142.766;2023-07-24T12:16:00;99872.53;;;19.81;100.00
63700;BME280;49845;47.130;142.766;2023-07-24T12:18:32;99876.97;;;19.81;100.00
63700;BME280;49845;47.130;142.766;2023-07-24T12:21:04;99884.94;;;19.81;100.00
63700;BME280;49845;47.130;142.766;2023-07-24T12:23:36;99876.34;;;19.77;100.00
63700;BME280;49845;47.130;142.766;2023-07-24T12:26:08;99878.03;;;19.78;100.00
63700;BME280;49845;47.130;142.766;2023-07-24T12:28:44;99872.72;;;19.78;100.00
63700;BME280;49845;47.130;142.766;2023-07-24T12:31:19;99874.59;;;19.76;100.00
63700;BME280;49845;47.130;142.766;2023-07-24T12:33:51;99865.72;;;19.77;100.00
63700;BME280;49845;47.130;142.766;2023-07-24T12:36:23;99863.84;;;19.79;100.00
63700;BME280;49845;47.130;142.766;2023-07-24T12:38:55;99861.28;;;19.78;100.00
63700;BME280;49845;47.130;142.766;2023-07-24T12:41:27;99866.50;;;19.79;100.00
63700;BME280;49845;47.130;142.766;2023-07-24T12:44:02;99869.88;;;19.81;100.00
63700;BME280;49845;47.130;142.766;2023-07-24T12:46:34;99864.78;;;19.78;100.00
63700;BME280;49845;47.130;142.766;2023-07-24T12:49:06;99864.78;;;19.78;100.00
63700;BME280;49845;47.130;142.766;2023-07-24T12:51:39;99860.44;;;19.77;100.00
63700;BME280;49845;47.130;142.766;2023-07-24T12:54:11;99848.28;;;19.73;100.00
63700;BME280;49845;47.130;142.766;2023-07-24T12:57:03;99866.09;;;19.71;100.00
63700;BME280;49845;47.130;142.766;2023-07-24T12:59:39;99854.72;;;19.69;100.00
63700;BME280;49845;47.130;142.766;2023-07-24T13:02:11;99856.63;;;19.67;100.00
63700;BME280;49845;47.130;142.766;2023-07-24T13:04:43;99857.38;;;19.69;100.00
63700;BME280;49845;47.130;142.766;2023-07-24T13:07:15;99859.09;;;19.70;100.00
63700;BME280;49845;47.130;142.766;2023-07-24T13:09:46;99862.50;;;19.72;100.00
63700;BME280;49845;47.130;142.766;2023-07-24T13:12:19;99862.31;;;19.75;100.00
63700;BME280;49845;47.130;142.766;2023-07-24T13:14:52;99865.88;;;19.74;100.00
63700;BME280;49845;47.130;142.766;2023-07-24T13:17:24;99862.50;;;19.72;100.00
63700;BME280;49845;47.130;142.766;2023-07-24T13:19:56;99862.50;;;19.72;100.00
63700;BME280;49845;47.130;142.766;2023-07-24T13:22:29;99865.16;;;19.72;100.00
63700;BME280;49845;47.130;142.766;2023-07-24T13:25:02;99863.44;;;19.71;100.00
63700;BME280;49845;47.130;142.766;2023-07-24T13:27:34;99860.78;;;19.71;100.00
63700;BME280;49845;47.130;142.766;2023-07-24T13:30:10;99859.09;;;19.70;100.00
63700;BME280;49845;47.130;142.766;2023-07-24T13:32:42;99858.91;;;19.73;100.00
63700;BME280;49845;47.130;142.766;2023-07-24T13:35:15;99858.91;;;19.73;100.00
63700;BME280;49845;47.130;142.766;2023-07-24T13:37:47;99865.88;;;19.74;100.00
63700;BME280;49845;47.130;142.766;2023-07-24T13:40:20;99871.19;;;19.74;100.00
63700;BME280;49845;47.130;142.766;2023-07-24T13:42:52;99866.78;;;19.75;100.00
63700;BME280;49845;47.130;142.766;2023-07-24T13:45:25;99864.00;;;19.76;100.00
63700;BME280;49845;47.130;142.766;2023-07-24T13:47:58;99862.50;;;19.72;100.00
63700;BME280;49845;47.130;142.766;2023-07-24T13:50:30;99864.19;;;19.73;100.00
63700;BME280;49845;47.130;142.766;2023-07-24T13:53:02;99856.25;;;19.73;100.00
63700;BME280;49845;47.130;142.766;2023-07-24T13:55:34;99857.09;;;19.74;100.00
63700;BME280;49845;47.130;142.766;2023-07-24T13:58:06;99851.03;;;19.72;100.00
63700;BME280;49845;47.130;142.766;2023-07-24T14:00:41;99847.53;;;19.71;100.00
63700;BME280;49845;47.130;142.766;2023-07-24T14:03:13;99837.88;;;19.70;100.00
63700;BME280;49845;47.130;142.766;2023-07-24T14:05:46;99845.91;;;19.69;100.00
63700;BME280;49845;47.130;142.766;2023-07-24T14:08:18;99850.19;;;19.71;100.00
63700;BME280;49845;47.130;142.766;2023-07-24T14:10:51;99828.84;;;19.58;100.00
63700;BME280;49845;47.130;142.766;2023-07-24T14:13:23;99824.78;;;19.53;100.00
63700;BME280;49845;47.130;142.766;2023-07-24T14:15:56;99860.59;;;19.74;100.00
63700;BME280;49845;47.130;142.766;2023-07-24T14:18:28;99858.91;;;19.73;100.00
63700;BME280;49845;47.130;142.766;2023-07-24T14:21:00;99857.22;;;19.72;100.00
63700;BME280;49845;47.130;142.766;2023-07-24T14:23:32;99867.81;;;19.72;100.00
63700;BME280;49845;47.130;142.766;2023-07-24T14:26:07;99861.75;;;19.70;100.00
63700;BME280;49845;47.130;142.766;2023-07-24T14:28:38;99858.38;;;19.67;100.00
63700;BME280;49845;47.130;142.766;2023-07-24T14:31:12;99853.97;;;19.67;100.00
63700;BME280;49845;47.130;142.766;2023-07-24T14:33:44;99845.22;;;19.65;100.00
63700;BME280;49845;47.130;142.766;2023-07-24T14:36:15;99852.41;;;19.63;100.00
63700;BME280;49845;47.130;142.766;2023-07-24T14:38:47;99847.13;;;19.63;100.00
63700;BME280;49845;47.130;142.766;2023-07-24T14:41:20;99846.28;;;19.63;100.00
63700;BME280;49845;47.130;142.766;2023-07-24T14:43:55;99854.31;;;19.61;100.00
63700;BME280;49845;47.130;142.766;2023-07-24T14:46:28;99857.72;;;19.63;100.00
63700;BME280;49845;47.130;142.766;2023-07-24T14:49:01;99845.44;;;19.62;100.00
63700;BME280;49845;47.130;142.766;2023-07-24T14:51:33;99847.13;;;19.63;100.00
63700;BME280;49845;47.130;142.766;2023-07-24T14:54:05;99848.81;;;19.64;100.00
63700;BME280;49845;47.130;142.766;2023-07-24T14:56:36;99850.38;;;19.68;100.00
63700;BME280;49845;47.130;142.766;2023-07-24T14:59:24;99822.69;;;19.58;100.00
63700;BME280;49845;47.130;142.766;2023-07-24T15:01:57;99837.88;;;19.70;100.00
63700;BME280;49845;47.130;142.766;2023-07-24T15:04:29;99844.88;;;19.71;100.00
63700;BME280;49845;47.130;142.766;2023-07-24T15:07:01;99831.03;;;19.66;100.00
63700;BME280;49845;47.130;142.766;2023-07-24T15:09:32;99841.09;;;19.75;100.00
63700;BME280;49845;47.130;142.766;2023-07-24T15:12:04;99832.19;;;19.76;100.00
63700;BME280;49845;47.130;142.766;2023-07-24T15:14:36;99840.91;;;19.78;100.00
63700;BME280;49845;47.130;142.766;2023-07-24T15:17:10;99839.97;;;19.79;100.00
63700;BME280;49845;47.130;142.766;2023-07-24T15:19:44;99841.47;;;19.83;100.00
63700;BME280;49845;47.130;142.766;2023-07-24T15:22:16;99843.09;;;19.86;100.00
63700;BME280;49845;47.130;142.766;2023-07-24T15:24:48;99842.16;;;19.87;100.00
63700;BME280;49845;47.130;142.766;2023-07-24T15:27:19;99846.59;;;19.87;100.00
63700;BME280;49845;47.130;142.766;2023-07-24T15:29:51;99842.25;;;19.86;100.00
63700;BME280;49845;47.130;142.766;2023-07-24T15:32:25;99852.94;;;19.84;100.00
63700;BME280;49845;47.130;142.766;2023-07-24T15:34:56;99851.16;;;19.85;100.00
63700;BME280;49845;47.130;142.766;2023-07-24T15:37:29;99851.16;;;19.85;100.00
63700;BME280;49845;47.130;142.766;2023-07-24T15:40:01;99847.63;;;19.84;100.00
63700;BME280;49845;47.130;142.766;2023-07-24T15:42:33;99855.59;;;19.84;100.00
63700;BME280;49845;47.130;142.766;2023-07-24T15:45:05;99852.84;;;19.86;100.00
63700;BME280;49845;47.130;142.766;2023-07-24T15:47:39;99843.94;;;19.87;100.00
63700;BME280;49845;47.130;142.766;2023-07-24T15:50:13;99856.34;;;19.86;100.00
63700;BME280;49845;47.130;142.766;2023-07-24T15:52:44;99817.78;;;19.66;100.00
63700;BME280;49845;47.130;142.766;2023-07-24T15:55:16;99847.53;;;19.86;100.00
63700;BME280;49845;47.130;142.766;2023-07-24T15:57:47;99849.44;;;19.83;100.00
63700;BME280;49845;47.130;142.766;2023-07-24T16:00:19;99846.78;;;19.83;100.00